Time;durP1;ratioP1;P1;durP2;ratioP2;P2;SDS_P1;SDS_P2;PMS_P1;PMS_P2;Temp;Humidity;BMP_temperature;BMP_pressure;BME280_temperature;BME280_humidity;BME280_pressure;Samples;Min_cycle;Max_cycle;Signal;HPM_P1;HPM_P2
2020/12/16 00:00:22;;;;;;;;;;;8.00;81.00;;;;;;4968003;28;117927;-89
2020/12/16 00:02:47;;;;;;;;;;;8.00;81.00;;;;;;4951059;28;124464;-89
2020/12/16 00:05:13;;;;;;;;;;;8.00;81.10;;;;;;4951878;28;117552;-89
2020/12/16 00:07:38;;;;;;;;;;;8.00;81.10;;;;;;4952155;28;117981;-89
2020/12/16 00:10:05;;;;;;;;;;;8.00;81.10;;;;;;4950836;28;120282;-89
2020/12/16 00:12:30;;;;;;;;;;;8.10;81.20;;;;;;4967309;28;119463;-89
2020/12/16 00:14:56;;;;;;;;;;;8.00;81.10;;;;;;4951656;28;117308;-89
2020/12/16 00:17:22;;;;;;;;;;;8.10;81.10;;;;;;4967948;28;117210;-89
2020/12/16 00:19:47;;;;;;;;;;;8.00;81.10;;;;;;4967363;28;117562;-89
2020/12/16 00:22:13;;;;;;;;;;;8.00;81.00;;;;;;4950182;28;120657;-89
2020/12/16 00:24:39;;;;;;;;;;;8.10;81.10;;;;;;4951719;28;117432;-89
2020/12/16 00:27:04;;;;;;;;;;;8.00;81.10;;;;;;4968480;28;117448;-89
2020/12/16 00:29:30;;;;;;;;;;;8.10;81.10;;;;;;4951066;28;120597;-89
2020/12/16 00:31:55;;;;;;;;;;;8.10;81.10;;;;;;4951525;28;119346;-89
2020/12/16 00:34:21;;;;;;;;;;;8.00;81.00;;;;;;4968726;28;117545;-89
2020/12/16 00:36:46;;;;;;;;;;;8.10;81.10;;;;;;4951948;28;117646;-89
2020/12/16 00:39:12;;;;;;;;;;;8.00;81.10;;;;;;4967973;28;117704;-89
2020/12/16 00:41:37;;;;;;;;;;;8.10;81.20;;;;;;4968136;28;117459;-89
2020/12/16 00:44:03;;;;;;;;;;;8.00;81.10;;;;;;4969213;28;117757;-89
2020/12/16 00:46:29;;;;;;;;;;;8.00;81.10;;;;;;4969207;28;117701;-89
2020/12/16 00:48:54;;;;;;;;;;;8.10;81.10;;;;;;4951666;28;120488;-89
2020/12/16 00:51:20;;;;;;;;;;;8.00;81.00;;;;;;4951137;28;119420;-89
2020/12/16 00:53:45;;;;;;;;;;;8.10;81.10;;;;;;4951932;28;117440;-89
2020/12/16 00:56:11;;;;;;;;;;;8.10;81.10;;;;;;4968766;28;117337;-90
2020/12/16 00:58:36;;;;;;;;;;;8.10;81.10;;;;;;4950057;28;119884;-89
2020/12/16 01:01:02;;;;;;;;;;;8.00;81.00;;;;;;4950592;28;118990;-89
2020/12/16 01:03:28;;;;;;;;;;;8.00;81.00;;;;;;4968358;28;117505;-89
2020/12/16 01:05:53;;;;;;;;;;;8.10;81.10;;;;;;4951250;28;117309;-90
2020/12/16 01:08:19;;;;;;;;;;;8.10;81.10;;;;;;4950196;28;120033;-89
2020/12/16 01:10:45;;;;;;;;;;;8.10;81.10;;;;;;4949286;28;119583;-89
2020/12/16 01:13:10;;;;;;;;;;;8.10;81.10;;;;;;4951327;28;117604;-89
2020/12/16 01:15:36;;;;;;;;;;;8.10;81.00;;;;;;4985160;28;117925;-89
2020/12/16 01:18:01;;;;;;;;;;;8.10;81.10;;;;;;4949830;28;120965;-89
2020/12/16 01:20:27;;;;;;;;;;;8.10;81.10;;;;;;4949813;28;119741;-90
2020/12/16 01:22:52;;;;;;;;;;;8.10;81.10;;;;;;4950581;28;117516;-89
2020/12/16 01:25:21;;;;;;;;;;;8.10;81.10;;;;;;4950827;28;117463;-89
2020/12/16 01:28:07;;;;;;;;;;;8.00;81.00;;;;;;4949644;28;120224;-89
2020/12/16 01:30:32;;;;;;;;;;;8.10;81.20;;;;;;4967702;28;120617;-89
2020/12/16 01:32:58;;;;;;;;;;;8.10;81.20;;;;;;4953966;28;117336;-89
2020/12/16 01:35:23;;;;;;;;;;;8.10;81.10;;;;;;4970236;28;117319;-90
2020/12/16 01:37:49;;;;;;;;;;;8.10;81.10;;;;;;4953285;28;121144;-89
2020/12/16 01:40:14;;;;;;;;;;;8.10;81.20;;;;;;4953338;28;120865;-89
2020/12/16 01:42:41;;;;;;;;;;;8.10;81.20;;;;;;4971257;28;117583;-89
2020/12/16 01:45:11;;;;;;;;;;;8.10;81.20;;;;;;4971117;28;117576;-89
2020/12/16 01:47:36;;;;;;;;;;;8.10;81.20;;;;;;4969730;28;120967;-89
2020/12/16 01:50:03;;;;;;;;;;;8.10;81.20;;;;;;4953536;28;119516;-89
2020/12/16 01:52:28;;;;;;;;;;;8.10;81.20;;;;;;4971276;28;117642;-89
2020/12/16 01:54:54;;;;;;;;;;;8.10;81.20;;;;;;4954962;28;117365;-89
2020/12/16 01:57:19;;;;;;;;;;;8.10;81.20;;;;;;4970198;28;120567;-89
2020/12/16 01:59:45;;;;;;;;;;;8.10;81.20;;;;;;4969750;28;118013;-89
2020/12/16 02:02:11;;;;;;;;;;;8.10;81.20;;;;;;4955925;28;117608;-89
2020/12/16 02:04:41;;;;;;;;;;;8.10;81.20;;;;;;4955137;28;117517;-89
2020/12/16 02:07:07;;;;;;;;;;;8.10;81.10;;;;;;4969702;28;119723;-89
2020/12/16 02:09:40;;;;;;;;;;;8.10;81.20;;;;;;4970272;28;117217;-89
2020/12/16 02:12:15;;;;;;;;;;;8.10;81.20;;;;;;4970357;28;117433;-89
2020/12/16 02:14:41;;;;;;;;;;;8.10;81.20;;;;;;4970700;28;117433;-89
2020/12/16 02:17:07;;;;;;;;;;;8.10;81.10;;;;;;4969544;28;118612;-89
2020/12/16 02:19:35;;;;;;;;;;;8.10;81.20;;;;;;4968979;28;119457;-89
2020/12/16 02:22:00;;;;;;;;;;;8.10;81.20;;;;;;4953553;28;117565;-89
2020/12/16 02:24:26;;;;;;;;;;;8.10;81.10;;;;;;4953333;28;117930;-90
2020/12/16 02:26:51;;;;;;;;;;;8.10;81.10;;;;;;4951999;28;121193;-89
2020/12/16 02:29:18;;;;;;;;;;;8.10;81.10;;;;;;4952300;28;119613;-89
2020/12/16 02:31:43;;;;;;;;;;;8.10;81.20;;;;;;4969228;28;117362;-89
2020/12/16 02:34:09;;;;;;;;;;;8.10;81.10;;;;;;4953161;28;117576;-90
2020/12/16 02:36:34;;;;;;;;;;;8.10;81.20;;;;;;4951792;28;120447;-89
2020/12/16 02:39:00;;;;;;;;;;;8.10;81.20;;;;;;4951800;28;120275;-89
2020/12/16 02:41:27;;;;;;;;;;;8.10;81.10;;;;;;4952504;28;117407;-89
2020/12/16 02:43:53;;;;;;;;;;;8.10;81.10;;;;;;4953251;28;117485;-89
2020/12/16 02:46:18;;;;;;;;;;;8.10;81.10;;;;;;4968425;28;117616;-89
2020/12/16 02:48:44;;;;;;;;;;;8.10;81.10;;;;;;4951148;28;119666;-90
2020/12/16 02:51:09;;;;;;;;;;;8.10;81.00;;;;;;4952775;28;117577;-89
2020/12/16 02:53:35;;;;;;;;;;;8.10;81.20;;;;;;4953285;28;116928;-89
2020/12/16 02:56:00;;;;;;;;;;;8.10;81.10;;;;;;4951720;28;121127;-89
2020/12/16 02:58:26;;;;;;;;;;;8.10;81.10;;;;;;4951805;28;119416;-89
2020/12/16 03:00:51;;;;;;;;;;;8.10;81.20;;;;;;4953197;28;117511;-90
2020/12/16 03:03:17;;;;;;;;;;;8.10;81.10;;;;;;4953661;28;117849;-90
2020/12/16 03:05:42;;;;;;;;;;;8.10;81.10;;;;;;4952463;28;120696;-89
2020/12/16 03:08:10;;;;;;;;;;;8.10;81.20;;;;;;4952631;28;119185;-89
2020/12/16 03:10:36;;;;;;;;;;;8.10;81.10;;;;;;4953993;28;117507;-90
2020/12/16 03:13:02;;;;;;;;;;;8.10;81.10;;;;;;4953460;28;116824;-90
2020/12/16 03:15:27;;;;;;;;;;;8.10;81.10;;;;;;4969766;28;117478;-90
2020/12/16 03:17:52;;;;;;;;;;;8.10;81.20;;;;;;4953138;28;119275;-90
2020/12/16 03:20:18;;;;;;;;;;;8.10;81.20;;;;;;4953698;28;117398;-89
2020/12/16 03:22:43;;;;;;;;;;;8.10;81.20;;;;;;4953588;28;117932;-90
2020/12/16 03:25:09;;;;;;;;;;;8.10;81.10;;;;;;4952036;28;120144;-90
2020/12/16 03:27:34;;;;;;;;;;;8.10;81.10;;;;;;4952018;28;119537;-90
2020/12/16 03:30:00;;;;;;;;;;;8.10;81.10;;;;;;4952972;28;117341;-89
2020/12/16 03:32:26;;;;;;;;;;;8.10;81.10;;;;;;4969542;28;117781;-89
2020/12/16 03:34:51;;;;;;;;;;;8.10;81.10;;;;;;4951373;28;121135;-90
2020/12/16 03:37:17;;;;;;;;;;;8.10;81.10;;;;;;4967375;28;117952;-90
2020/12/16 03:39:42;;;;;;;;;;;8.10;81.20;;;;;;4952037;28;117520;-89
2020/12/16 03:42:08;;;;;;;;;;;8.10;81.20;;;;;;4952477;28;117533;-90
2020/12/16 03:44:33;;;;;;;;;;;8.10;81.20;;;;;;4967710;28;117623;-90
2020/12/16 03:46:59;;;;;;;;;;;8.10;81.20;;;;;;4950755;28;120192;-90
2020/12/16 03:49:24;;;;;;;;;;;8.10;81.10;;;;;;4951742;28;117423;-89
2020/12/16 03:51:50;;;;;;;;;;;8.10;81.20;;;;;;4951451;28;117844;-90
2020/12/16 03:54:16;;;;;;;;;;;8.10;81.10;;;;;;4967026;28;120261;-90
2020/12/16 03:56:41;;;;;;;;;;;8.10;81.20;;;;;;4966996;28;118025;-90
2020/12/16 03:59:07;;;;;;;;;;;8.10;81.10;;;;;;4951279;28;117548;-90
2020/12/16 04:01:32;;;;;;;;;;;8.10;81.10;;;;;;4951431;28;117717;-90
2020/12/16 04:03:58;;;;;;;;;;;8.10;81.10;;;;;;4967588;28;119062;-89
2020/12/16 04:06:23;;;;;;;;;;;8.10;81.20;;;;;;4950779;28;119654;-90
2020/12/16 04:08:49;;;;;;;;;;;8.10;81.10;;;;;;4951802;28;117254;-89
2020/12/16 04:11:15;;;;;;;;;;;8.10;81.20;;;;;;4952153;28;117376;-89
2020/12/16 04:13:41;;;;;;;;;;;8.10;81.20;;;;;;4967446;28;121744;-89
2020/12/16 04:16:11;;;;;;;;;;;8.10;81.20;;;;;;4951002;28;119271;-89
2020/12/16 04:18:37;;;;;;;;;;;8.10;81.20;;;;;;4968460;28;117674;-89
2020/12/16 04:21:06;;;;;;;;;;;8.10;81.10;;;;;;4969178;28;117341;-89
2020/12/16 04:23:31;;;;;;;;;;;8.10;81.10;;;;;;4967696;28;120334;-89
2020/12/16 04:25:57;;;;;;;;;;;8.10;81.20;;;;;;4950503;28;126454;-90
2020/12/16 04:28:22;;;;;;;;;;;8.10;81.20;;;;;;4968948;28;117790;-89
2020/12/16 04:30:48;;;;;;;;;;;8.10;81.20;;;;;;4953553;28;117533;-89
2020/12/16 04:33:13;;;;;;;;;;;8.10;81.10;;;;;;4952082;28;118612;-89
2020/12/16 04:35:39;;;;;;;;;;;8.10;81.10;;;;;;4951433;28;119616;-89
2020/12/16 04:38:04;;;;;;;;;;;8.10;81.20;;;;;;4952503;28;117784;-89
2020/12/16 04:40:30;;;;;;;;;;;8.10;81.20;;;;;;4952544;28;117866;-90
2020/12/16 04:42:59;;;;;;;;;;;8.10;81.10;;;;;;4951478;28;119925;-89
2020/12/16 04:45:24;;;;;;;;;;;8.10;81.10;;;;;;4967325;28;119308;-89
2020/12/16 04:47:50;;;;;;;;;;;8.10;81.10;;;;;;4968346;28;116927;-90
2020/12/16 04:50:15;;;;;;;;;;;8.10;81.10;;;;;;4951382;28;117801;-90
2020/12/16 04:52:42;;;;;;;;;;;8.10;81.10;;;;;;4950468;28;122316;-90
2020/12/16 04:55:07;;;;;;;;;;;8.10;81.10;;;;;;4966467;28;120927;-90
2020/12/16 04:57:32;;;;;;;;;;;8.10;81.20;;;;;;4951382;28;117495;-90
2020/12/16 04:59:58;;;;;;;;;;;8.10;81.20;;;;;;4951054;28;117805;-90
2020/12/16 05:02:23;;;;;;;;;;;8.10;81.10;;;;;;4949861;28;127756;-90
2020/12/16 05:04:51;;;;;;;;;;;8.10;81.20;;;;;;4969170;28;117581;-90
2020/12/16 05:07:27;;;;;;;;;;;8.10;81.10;;;;;;4970807;28;117342;-90
2020/12/16 05:09:52;;;;;;;;;;;8.10;81.10;;;;;;4970808;28;117794;-90
2020/12/16 05:12:18;;;;;;;;;;;8.10;81.10;;;;;;4969931;28;118729;-90
2020/12/16 05:14:43;;;;;;;;;;;8.10;81.10;;;;;;4952649;28;120339;-90
2020/12/16 05:17:09;;;;;;;;;;;8.10;81.20;;;;;;4953800;28;117792;-89
2020/12/16 05:19:44;;;;;;;;;;;8.10;81.20;;;;;;4954411;28;117337;-90
2020/12/16 05:22:23;;;;;;;;;;;8.10;81.10;;;;;;4970114;28;117458;-90
2020/12/16 05:24:52;;;;;;;;;;;8.10;81.10;;;;;;4969599;28;120698;-90
2020/12/16 05:27:19;;;;;;;;;;;8.10;81.10;;;;;;4970502;28;117725;-90
2020/12/16 05:29:44;;;;;;;;;;;8.10;81.20;;;;;;4971264;28;117819;-90
2020/12/16 05:32:20;;;;;;;;;;;8.10;81.20;;;;;;4953779;28;121384;-90
2020/12/16 05:34:45;;;;;;;;;;;8.10;81.20;;;;;;4970147;28;119947;-89
2020/12/16 05:37:23;;;;;;;;;;;8.10;81.20;;;;;;4954831;28;117217;-90
2020/12/16 05:39:55;;;;;;;;;;;8.10;81.10;;;;;;4988729;28;117799;-90
2020/12/16 05:42:21;;;;;;;;;;;8.10;81.10;;;;;;4970707;28;118733;-90
2020/12/16 05:44:47;;;;;;;;;;;8.10;81.10;;;;;;4970473;28;119245;-90
2020/12/16 05:47:12;;;;;;;;;;;8.10;81.10;;;;;;4955589;28;117431;-90
2020/12/16 05:49:37;;;;;;;;;;;8.10;81.10;;;;;;4972150;28;117892;-90
2020/12/16 05:52:04;;;;;;;;;;;8.10;81.10;;;;;;4953733;28;124160;-90
2020/12/16 05:54:29;;;;;;;;;;;8.10;81.10;;;;;;4970321;28;120614;-90
2020/12/16 05:57:14;;;;;;;;;;;8.10;81.10;;;;;;4970863;28;117465;-90
2020/12/16 05:59:39;;;;;;;;;;;8.10;81.10;;;;;;4988484;28;117809;-89
2020/12/16 06:02:05;;;;;;;;;;;8.10;81.10;;;;;;4953147;28;121427;-90
2020/12/16 06:04:34;;;;;;;;;;;8.10;81.10;;;;;;4969135;28;117429;-90
2020/12/16 06:07:00;;;;;;;;;;;8.10;81.10;;;;;;4969773;28;117496;-89
2020/12/16 06:09:26;;;;;;;;;;;8.10;81.10;;;;;;4970080;28;117366;-90
2020/12/16 06:11:53;;;;;;;;;;;8.10;81.10;;;;;;4952757;28;120170;-90
2020/12/16 06:14:20;;;;;;;;;;;8.10;81.10;;;;;;4969182;28;117611;-89
2020/12/16 06:16:46;;;;;;;;;;;8.10;81.10;;;;;;4968792;28;117486;-90
2020/12/16 06:19:11;;;;;;;;;;;8.10;81.10;;;;;;4969736;28;117737;-90
2020/12/16 06:21:37;;;;;;;;;;;8.20;81.20;;;;;;4952361;28;122431;-89
2020/12/16 06:24:02;;;;;;;;;;;8.20;81.20;;;;;;4968759;28;117329;-89
2020/12/16 06:26:28;;;;;;;;;;;8.10;81.10;;;;;;4969450;28;117437;-89
2020/12/16 06:28:53;;;;;;;;;;;8.10;81.10;;;;;;4969278;28;117357;-89
2020/12/16 06:31:19;;;;;;;;;;;8.10;81.10;;;;;;4952249;28;122162;-89
2020/12/16 06:33:52;;;;;;;;;;;8.10;81.10;;;;;;4968454;28;120605;-89
2020/12/16 06:36:18;;;;;;;;;;;8.10;81.00;;;;;;4952902;28;117820;-89
2020/12/16 06:38:47;;;;;;;;;;;8.10;81.00;;;;;;4970120;28;117336;-89
2020/12/16 06:41:16;;;;;;;;;;;8.10;81.00;;;;;;4968459;28;120404;-88
2020/12/16 06:43:44;;;;;;;;;;;8.10;81.00;;;;;;4952129;28;120952;-88
2020/12/16 06:46:30;;;;;;;;;;;8.20;81.10;;;;;;4953565;28;117658;-89
2020/12/16 06:48:55;;;;;;;;;;;8.20;81.10;;;;;;4986802;28;117339;-89
2020/12/16 06:51:21;;;;;;;;;;;8.10;81.00;;;;;;4968910;28;120168;-89
2020/12/16 06:53:47;;;;;;;;;;;8.10;81.00;;;;;;4968395;28;119675;-89
2020/12/16 06:56:17;;;;;;;;;;;8.20;81.00;;;;;;4953419;28;117643;-89
2020/12/16 06:58:43;;;;;;;;;;;8.10;81.00;;;;;;4970080;28;117878;-90
2020/12/16 07:01:11;;;;;;;;;;;8.10;81.00;;;;;;4953249;28;121508;-90
2020/12/16 07:03:37;;;;;;;;;;;8.10;81.00;;;;;;4969300;28;119699;-90
2020/12/16 07:06:02;;;;;;;;;;;8.20;81.00;;;;;;4953310;28;117671;-90
2020/12/16 07:08:28;;;;;;;;;;;8.10;81.00;;;;;;4953894;28;117503;-90
2020/12/16 07:10:56;;;;;;;;;;;8.10;81.00;;;;;;4952419;28;120545;-90
2020/12/16 07:13:22;;;;;;;;;;;8.10;81.00;;;;;;4952580;28;119085;-90
2020/12/16 07:15:52;;;;;;;;;;;8.20;81.00;;;;;;4968740;28;117416;-90
2020/12/16 07:18:28;;;;;;;;;;;8.10;81.00;;;;;;4969018;28;118057;-90
2020/12/16 07:21:00;;;;;;;;;;;8.20;81.10;;;;;;4968208;28;117492;-90
2020/12/16 07:23:47;;;;;;;;;;;8.20;81.10;;;;;;4967623;28;119818;-90
2020/12/16 07:26:16;;;;;;;;;;;8.20;81.00;;;;;;4984877;28;117691;-90
2020/12/16 07:28:42;;;;;;;;;;;8.20;81.00;;;;;;4968052;28;117348;-89
2020/12/16 07:31:07;;;;;;;;;;;8.10;81.00;;;;;;4951259;28;120207;-90
2020/12/16 07:33:33;;;;;;;;;;;8.20;81.00;;;;;;4950920;28;118782;-90
2020/12/16 07:35:59;;;;;;;;;;;8.20;81.00;;;;;;4951775;28;117656;-90
2020/12/16 07:38:25;;;;;;;;;;;8.20;81.00;;;;;;4952254;28;117388;-89
2020/12/16 07:40:54;;;;;;;;;;;8.20;81.00;;;;;;4950706;28;121241;-90
2020/12/16 07:43:19;;;;;;;;;;;8.20;81.00;;;;;;4966697;28;119651;-89
2020/12/16 07:45:46;;;;;;;;;;;8.20;81.00;;;;;;4967995;28;117592;-89
2020/12/16 07:48:15;;;;;;;;;;;8.20;81.00;;;;;;4968433;28;117975;-89
2020/12/16 07:50:41;;;;;;;;;;;8.20;81.00;;;;;;4967427;28;120107;-89
2020/12/16 07:53:06;;;;;;;;;;;8.20;80.90;;;;;;4951012;28;120824;-89
2020/12/16 07:55:37;;;;;;;;;;;8.20;81.00;;;;;;4951640;28;117741;-89
2020/12/16 07:58:06;;;;;;;;;;;8.20;81.00;;;;;;4953252;28;117629;-90
2020/12/16 08:00:32;;;;;;;;;;;8.20;81.00;;;;;;4967535;28;117624;-89
2020/12/16 08:02:57;;;;;;;;;;;8.20;80.90;;;;;;4951365;28;119554;-89
2020/12/16 08:05:24;;;;;;;;;;;8.20;81.00;;;;;;4951987;28;117543;-89
2020/12/16 08:07:50;;;;;;;;;;;8.20;81.00;;;;;;4952329;28;117820;-89
2020/12/16 08:10:16;;;;;;;;;;;8.20;80.90;;;;;;4951633;28;120363;-89
2020/12/16 08:12:42;;;;;;;;;;;8.20;81.00;;;;;;4951294;28;119418;-89
2020/12/16 08:15:08;;;;;;;;;;;8.20;81.00;;;;;;4952412;28;117541;-89
2020/12/16 08:17:40;;;;;;;;;;;8.20;81.00;;;;;;4970239;28;117366;-89
2020/12/16 08:20:19;;;;;;;;;;;8.20;80.90;;;;;;4969648;28;117533;-91
2020/12/16 08:22:45;;;;;;;;;;;8.20;80.90;;;;;;4967815;28;120578;-91
2020/12/16 08:25:11;;;;;;;;;;;8.20;80.90;;;;;;4968269;28;117652;-91
2020/12/16 08:27:37;;;;;;;;;;;8.20;81.00;;;;;;4968631;28;117385;-91
2020/12/16 08:30:04;;;;;;;;;;;8.20;80.90;;;;;;4967195;28;120186;-91
2020/12/16 08:32:29;;;;;;;;;;;8.20;80.90;;;;;;4950617;28;119406;-91
2020/12/16 08:34:55;;;;;;;;;;;8.20;80.80;;;;;;4951503;28;117568;-91
2020/12/16 08:37:20;;;;;;;;;;;8.20;80.90;;;;;;4951953;28;118227;-91
2020/12/16 08:39:46;;;;;;;;;;;8.20;80.80;;;;;;4953099;28;120000;-91
2020/12/16 08:42:12;;;;;;;;;;;8.20;80.80;;;;;;4970688;28;117522;-91
2020/12/16 08:44:38;;;;;;;;;;;8.20;80.80;;;;;;4954879;28;117478;-91
2020/12/16 08:47:04;;;;;;;;;;;8.20;80.80;;;;;;4971342;28;116977;-91
2020/12/16 08:49:29;;;;;;;;;;;8.20;80.80;;;;;;4953681;28;120044;-91
2020/12/16 08:51:55;;;;;;;;;;;8.20;80.90;;;;;;4953715;28;119499;-92
2020/12/16 08:54:25;;;;;;;;;;;8.20;80.90;;;;;;4970997;28;117319;-92
2020/12/16 08:56:50;;;;;;;;;;;8.20;80.90;;;;;;4953912;28;117517;-92
2020/12/16 08:59:22;;;;;;;;;;;8.20;80.90;;;;;;4969256;28;122367;-92
2020/12/16 09:01:48;;;;;;;;;;;8.20;80.90;;;;;;4969764;28;119527;-92
2020/12/16 09:04:24;;;;;;;;;;;8.20;80.90;;;;;;4970856;28;117336;-92
2020/12/16 09:07:16;;;;;;;;;;;8.20;81.00;;;;;;4971278;28;117748;-92
2020/12/16 09:09:45;;;;;;;;;;;8.20;80.90;;;;;;4967253;28;120747;-92
2020/12/16 09:12:14;;;;;;;;;;;8.20;81.00;;;;;;4970208;28;117999;-91
2020/12/16 09:15:09;;;;;;;;;;;8.20;81.00;;;;;;4971266;28;117406;-92
2020/12/16 09:17:36;;;;;;;;;;;8.20;80.90;;;;;;4958534;28;117325;-92
2020/12/16 09:20:02;;;;;;;;;;;8.20;81.00;;;;;;4954244;28;121139;-92
2020/12/16 09:22:28;;;;;;;;;;;8.20;81.00;;;;;;4953356;28;119449;-92
2020/12/16 09:24:54;;;;;;;;;;;8.20;81.00;;;;;;4954493;28;117469;-92
2020/12/16 09:27:19;;;;;;;;;;;8.20;81.00;;;;;;4971494;28;117918;-92
2020/12/16 09:29:45;;;;;;;;;;;8.20;81.00;;;;;;4954165;28;120121;-91
2020/12/16 09:32:17;;;;;;;;;;;8.20;81.00;;;;;;4971196;28;118944;-91
2020/12/16 09:34:43;;;;;;;;;;;8.20;81.00;;;;;;4970808;28;117594;-92
2020/12/16 09:37:23;;;;;;;;;;;8.20;81.00;;;;;;4971156;28;116856;-92
2020/12/16 09:39:49;;;;;;;;;;;8.20;81.00;;;;;;4970446;28;120322;-91
2020/12/16 09:42:15;;;;;;;;;;;8.20;80.90;;;;;;4954008;28;119114;-92
2020/12/16 09:44:41;;;;;;;;;;;8.20;81.00;;;;;;4970874;28;117221;-92
2020/12/16 09:47:10;;;;;;;;;;;8.20;81.00;;;;;;4954185;28;117402;-92
2020/12/16 09:49:36;;;;;;;;;;;8.20;80.90;;;;;;4969303;28;121160;-91
2020/12/16 09:52:01;;;;;;;;;;;8.20;80.90;;;;;;4952852;28;119221;-92
2020/12/16 09:54:30;;;;;;;;;;;8.20;80.90;;;;;;4953964;28;117411;-90
2020/12/16 09:57:05;;;;;;;;;;;8.20;80.90;;;;;;4970765;28;117691;-90
2020/12/16 09:59:31;;;;;;;;;;;8.20;80.90;;;;;;4968139;28;121157;-90
2020/12/16 10:01:57;;;;;;;;;;;8.20;80.90;;;;;;4952720;28;119447;-90
2020/12/16 10:04:22;;;;;;;;;;;8.20;80.80;;;;;;4953521;28;117985;-90
2020/12/16 10:06:48;;;;;;;;;;;8.20;80.80;;;;;;4953188;28;117773;-90
2020/12/16 10:09:13;;;;;;;;;;;8.30;80.90;;;;;;4952416;28;120328;-90
2020/12/16 10:11:39;;;;;;;;;;;8.30;80.90;;;;;;4951478;28;118956;-90
2020/12/16 10:14:04;;;;;;;;;;;8.30;80.80;;;;;;4969728;28;117516;-90
2020/12/16 10:16:32;;;;;;;;;;;8.30;80.80;;;;;;4969858;28;117671;-90
2020/12/16 10:18:58;;;;;;;;;;;8.30;80.80;;;;;;4952856;28;120492;-90
2020/12/16 10:21:23;;;;;;;;;;;8.30;81.00;;;;;;4968806;28;117820;-90
2020/12/16 10:23:49;;;;;;;;;;;8.30;80.90;;;;;;4953165;28;117620;-90
2020/12/16 10:26:14;;;;;;;;;;;8.30;80.80;;;;;;4953647;28;117897;-90
2020/12/16 10:28:39;;;;;;;;;;;8.30;80.90;;;;;;4952944;28;120336;-90
2020/12/16 10:31:05;;;;;;;;;;;8.30;80.90;;;;;;4952570;28;120397;-90
2020/12/16 10:33:30;;;;;;;;;;;8.30;80.80;;;;;;4953670;28;117541;-90
2020/12/16 10:35:56;;;;;;;;;;;8.30;80.80;;;;;;4953186;28;117840;-90
2020/12/16 10:38:22;;;;;;;;;;;8.30;80.80;;;;;;4953131;28;120355;-90
2020/12/16 10:40:48;;;;;;;;;;;8.30;80.90;;;;;;4953037;28;123617;-90
2020/12/16 10:43:13;;;;;;;;;;;8.30;80.80;;;;;;4954638;28;117400;-90
2020/12/16 10:45:39;;;;;;;;;;;8.30;80.80;;;;;;4971479;28;117899;-90
2020/12/16 10:48:05;;;;;;;;;;;8.30;80.80;;;;;;4953583;28;121658;-90
2020/12/16 10:50:30;;;;;;;;;;;8.30;80.80;;;;;;4953026;28;119638;-90
2020/12/16 10:52:59;;;;;;;;;;;8.30;80.80;;;;;;4954053;28;117439;-90
2020/12/16 10:55:25;;;;;;;;;;;8.30;80.90;;;;;;4969902;28;117382;-90
2020/12/16 10:57:50;;;;;;;;;;;8.30;80.80;;;;;;4952806;28;120430;-90
2020/12/16 11:00:16;;;;;;;;;;;8.30;80.90;;;;;;4967736;28;119537;-90
2020/12/16 11:02:41;;;;;;;;;;;8.30;80.80;;;;;;4952918;28;117347;-90
2020/12/16 11:05:07;;;;;;;;;;;8.30;81.00;;;;;;4953218;28;117758;-90
2020/12/16 11:07:32;;;;;;;;;;;8.30;80.80;;;;;;4968747;28;117429;-90
2020/12/16 11:09:58;;;;;;;;;;;8.30;81.00;;;;;;4951655;28;120171;-90
2020/12/16 11:12:42;;;;;;;;;;;8.30;80.80;;;;;;4917618;28;117551;-90
2020/12/16 11:15:07;;;;;;;;;;;8.30;80.90;;;;;;4969184;28;118110;-90
2020/12/16 11:17:33;;;;;;;;;;;8.40;80.90;;;;;;4951513;28;120147;-90
2020/12/16 11:19:58;;;;;;;;;;;8.30;80.80;;;;;;4951490;28;120589;-90
2020/12/16 11:22:24;;;;;;;;;;;8.40;80.90;;;;;;4952024;28;117423;-90
2020/12/16 11:24:50;;;;;;;;;;;8.40;80.90;;;;;;4951892;28;117850;-90
2020/12/16 11:27:15;;;;;;;;;;;8.30;81.10;;;;;;4951309;28;120233;-90
2020/12/16 11:29:48;;;;;;;;;;;8.40;81.10;;;;;;4951213;28;119257;-90
2020/12/16 11:32:14;;;;;;;;;;;8.40;81.00;;;;;;4953411;28;117349;-90
2020/12/16 11:34:39;;;;;;;;;;;8.40;81.10;;;;;;4952531;28;117569;-90
2020/12/16 11:37:05;;;;;;;;;;;8.40;81.00;;;;;;4951137;28;122196;-90
2020/12/16 11:39:30;;;;;;;;;;;8.40;81.20;;;;;;4951676;28;119148;-90
2020/12/16 11:41:56;;;;;;;;;;;8.40;81.00;;;;;;4952531;28;117741;-90
2020/12/16 11:44:22;;;;;;;;;;;8.40;81.20;;;;;;4969736;28;117464;-90
2020/12/16 11:46:47;;;;;;;;;;;8.40;81.00;;;;;;4954019;28;120846;-90
2020/12/16 11:49:13;;;;;;;;;;;8.40;81.10;;;;;;4967792;28;117884;-90
2020/12/16 11:51:39;;;;;;;;;;;8.40;81.50;;;;;;4968831;28;117417;-90
2020/12/16 11:54:04;;;;;;;;;;;8.40;81.10;;;;;;4969478;28;117711;-90
2020/12/16 11:56:31;;;;;;;;;;;8.40;81.20;;;;;;4951758;28;121209;-90
2020/12/16 11:58:57;;;;;;;;;;;8.40;81.70;;;;;;4968246;28;120656;-90
2020/12/16 12:01:22;;;;;;;;;;;8.40;81.80;;;;;;4953892;28;117443;-90
2020/12/16 12:03:48;;;;;;;;;;;8.40;82.20;;;;;;4953622;28;117980;-90
2020/12/16 12:06:13;;;;;;;;;;;8.40;81.30;;;;;;4951475;28;121339;-90
2020/12/16 12:08:39;;;;;;;;;;;8.40;81.50;;;;;;4951740;28;119569;-90
2020/12/16 12:11:04;;;;;;;;;;;8.40;81.70;;;;;;4952598;28;117479;-90
2020/12/16 12:13:30;;;;;;;;;;;8.40;81.40;;;;;;4951623;28;117428;-90
2020/12/16 12:15:55;;;;;;;;;;;8.40;81.80;;;;;;4950952;28;121390;-90
2020/12/16 12:18:21;;;;;;;;;;;8.40;81.50;;;;;;4951324;28;119384;-90
2020/12/16 12:20:47;;;;;;;;;;;8.40;82.20;;;;;;4952182;28;117413;-90
2020/12/16 12:23:12;;;;;;;;;;;8.40;81.50;;;;;;4952348;28;117809;-90
2020/12/16 12:25:38;;;;;;;;;;;8.40;82.40;;;;;;4950570;28;122515;-90
2020/12/16 12:28:03;;;;;;;;;;;8.40;81.90;;;;;;4967238;28;117267;-90
2020/12/16 12:30:29;;;;;;;;;;;8.40;82.10;;;;;;4984456;28;117652;-90
2020/12/16 12:32:54;;;;;;;;;;;8.40;82.10;;;;;;4968305;28;117322;-90
2020/12/16 12:35:20;;;;;;;;;;;8.40;81.90;;;;;;4966501;28;117354;-90
2020/12/16 12:37:45;;;;;;;;;;;8.40;81.70;;;;;;4950009;28;120466;-90
2020/12/16 12:40:11;;;;;;;;;;;8.40;81.90;;;;;;4951000;28;117607;-90
2020/12/16 12:42:36;;;;;;;;;;;8.50;82.10;;;;;;4951329;28;117836;-90
2020/12/16 12:45:03;;;;;;;;;;;8.40;81.70;;;;;;4950139;28;120838;-90
2020/12/16 12:47:28;;;;;;;;;;;8.40;81.70;;;;;;4966764;28;119658;-90
2020/12/16 12:49:54;;;;;;;;;;;8.40;81.90;;;;;;4951189;28;117569;-90
2020/12/16 12:52:19;;;;;;;;;;;8.40;82.30;;;;;;4951793;28;117561;-90
2020/12/16 12:54:45;;;;;;;;;;;8.50;82.30;;;;;;4967342;28;117529;-90
2020/12/16 12:57:10;;;;;;;;;;;8.50;82.60;;;;;;4950178;28;119946;-90
2020/12/16 12:59:36;;;;;;;;;;;8.40;82.20;;;;;;4950905;28;117545;-90
2020/12/16 13:02:01;;;;;;;;;;;8.40;82.20;;;;;;4951300;28;117401;-90
2020/12/16 13:04:27;;;;;;;;;;;8.40;81.80;;;;;;4950638;28;121322;-90
2020/12/16 13:06:52;;;;;;;;;;;8.40;81.60;;;;;;4950622;28;120402;-90
2020/12/16 13:09:18;;;;;;;;;;;8.50;82.20;;;;;;4952169;28;117502;-90
2020/12/16 13:11:47;;;;;;;;;;;8.40;82.20;;;;;;4952603;28;117881;-90
2020/12/16 13:14:12;;;;;;;;;;;8.50;82.20;;;;;;4967959;28;121199;-90
2020/12/16 13:16:37;;;;;;;;;;;8.50;82.10;;;;;;4952815;28;117741;-90
2020/12/16 13:19:05;;;;;;;;;;;8.50;82.60;;;;;;4952504;28;117567;-90
2020/12/16 13:21:30;;;;;;;;;;;8.40;82.30;;;;;;4952603;28;117500;-90
2020/12/16 13:23:56;;;;;;;;;;;8.40;82.30;;;;;;4967703;28;117661;-90
2020/12/16 13:26:22;;;;;;;;;;;8.40;82.30;;;;;;4969759;28;118046;-89
2020/12/16 13:28:49;;;;;;;;;;;8.50;82.80;;;;;;4970318;28;117278;-90
2020/12/16 13:31:14;;;;;;;;;;;8.40;82.90;;;;;;4955025;28;117837;-90
2020/12/16 13:33:40;;;;;;;;;;;8.50;82.70;;;;;;4970099;28;117768;-90
2020/12/16 13:36:05;;;;;;;;;;;8.50;83.50;;;;;;4969616;28;117977;-90
2020/12/16 13:38:31;;;;;;;;;;;8.50;82.80;;;;;;4970995;28;117494;-90
2020/12/16 13:40:56;;;;;;;;;;;8.50;82.40;;;;;;4971215;28;117226;-90
2020/12/16 13:43:22;;;;;;;;;;;8.50;82.70;;;;;;4953237;28;121063;-90
2020/12/16 13:45:48;;;;;;;;;;;8.50;82.60;;;;;;4969567;28;117825;-90
2020/12/16 13:48:13;;;;;;;;;;;8.50;82.60;;;;;;4953999;28;117513;-90
2020/12/16 13:50:39;;;;;;;;;;;8.50;82.70;;;;;;4953277;28;117884;-90
2020/12/16 13:53:04;;;;;;;;;;;8.50;81.80;;;;;;4968995;28;117711;-90
2020/12/16 13:55:30;;;;;;;;;;;8.50;82.00;;;;;;4952395;28;120504;-90
2020/12/16 13:57:55;;;;;;;;;;;8.50;82.30;;;;;;4953389;28;117472;-90
2020/12/16 14:00:21;;;;;;;;;;;8.50;82.40;;;;;;4970015;28;117537;-90
2020/12/16 14:02:46;;;;;;;;;;;8.50;82.00;;;;;;4952552;28;121431;-90
2020/12/16 14:05:12;;;;;;;;;;;8.50;82.20;;;;;;4969060;28;117931;-90
2020/12/16 14:07:37;;;;;;;;;;;8.50;82.00;;;;;;4953978;28;117493;-90
2020/12/16 14:10:03;;;;;;;;;;;8.50;82.30;;;;;;4953806;28;117831;-90
2020/12/16 14:12:29;;;;;;;;;;;8.50;82.80;;;;;;4969317;28;121124;-90